sensor_id;sensor_type;location;lat;lon;timestamp;pressure;altitude;pressure_sealevel;temperature;humidity
43681;BME280;29281;50.356;30.894;2023-04-25T00:00:10;99652.78;;;10.45;84.38
43681;BME280;29281;50.356;30.894;2023-04-25T00:01:15;99651.31;;;10.41;84.90
43681;BME280;29281;50.356;30.894;2023-04-25T00:02:18;99648.91;;;10.38;85.11
43681;BME280;29281;50.356;30.894;2023-04-25T00:03:21;99653.94;;;10.30;85.83
43681;BME280;29281;50.356;30.894;2023-04-25T00:04:27;99658.17;;;10.32;85.70
43681;BME280;29281;50.356;30.894;2023-04-25T00:05:31;99650.10;;;10.34;85.60
43681;BME280;29281;50.356;30.894;2023-04-25T00:06:34;99652.98;;;10.31;85.79
43681;BME280;29281;50.356;30.894;2023-04-25T00:07:39;99653.71;;;10.33;85.69
43681;BME280;29281;50.356;30.894;2023-04-25T00:08:45;99639.59;;;10.32;85.41
43681;BME280;29281;50.356;30.894;2023-04-25T00:09:48;99647.67;;;10.31;86.13
43681;BME280;29281;50.356;30.894;2023-04-25T00:10:52;99638.86;;;10.30;86.48
43681;BME280;29281;50.356;30.894;2023-04-25T00:11:55;99642.59;;;10.28;87.16
43681;BME280;29281;50.356;30.894;2023-04-25T00:12:59;99642.33;;;10.19;87.33
43681;BME280;29281;50.356;30.894;2023-04-25T00:14:05;99647.64;;;10.19;87.36
43681;BME280;29281;50.356;30.894;2023-04-25T00:15:12;99644.44;;;10.14;87.04
43681;BME280;29281;50.356;30.894;2023-04-25T00:16:15;99644.22;;;10.17;87.41
43681;BME280;29281;50.356;30.894;2023-04-25T00:17:18;99641.56;;;10.17;87.32
43681;BME280;29281;50.356;30.894;2023-04-25T00:18:22;99638.83;;;10.19;87.09
43681;BME280;29281;50.356;30.894;2023-04-25T00:19:25;99638.83;;;10.19;88.20
43681;BME280;29281;50.356;30.894;2023-04-25T00:20:29;99637.98;;;10.18;87.10
43681;BME280;29281;50.356;30.894;2023-04-25T00:21:33;99627.45;;;10.17;86.85
43681;BME280;29281;50.356;30.894;2023-04-25T00:22:36;99638.51;;;10.11;87.29
43681;BME280;29281;50.356;30.894;2023-04-25T00:23:42;99632.14;;;10.13;87.00
43681;BME280;29281;50.356;30.894;2023-04-25T00:24:46;99633.09;;;10.12;87.36
43681;BME280;29281;50.356;30.894;2023-04-25T00:25:49;99634.16;;;10.10;87.63
43681;BME280;29281;50.356;30.894;2023-04-25T00:26:55;99631.62;;;10.08;89.64
43681;BME280;29281;50.356;30.894;2023-04-25T00:27:57;99631.77;;;10.07;89.05
43681;BME280;29281;50.356;30.894;2023-04-25T00:29:01;99630.92;;;10.06;89.78
43681;BME280;29281;50.356;30.894;2023-04-25T00:30:05;99634.64;;;10.04;90.44
43681;BME280;29281;50.356;30.894;2023-04-25T00:31:09;99631.70;;;9.96;91.14
43681;BME280;29281;50.356;30.894;2023-04-25T00:32:12;99629.16;;;9.94;93.59
43681;BME280;29281;50.356;30.894;2023-04-25T00:33:15;99629.63;;;9.88;93.90
43681;BME280;29281;50.356;30.894;2023-04-25T00:34:18;99624.44;;;9.86;93.28
43681;BME280;29281;50.356;30.894;2023-04-25T00:35:21;99625.80;;;9.92;93.55
43681;BME280;29281;50.356;30.894;2023-04-25T00:36:24;99628.30;;;9.94;92.53
43681;BME280;29281;50.356;30.894;2023-04-25T00:37:28;99635.56;;;9.92;93.36
43681;BME280;29281;50.356;30.894;2023-04-25T00:38:32;99632.06;;;9.91;94.26
43681;BME280;29281;50.356;30.894;2023-04-25T00:39:34;99627.61;;;9.92;93.71
43681;BME280;29281;50.356;30.894;2023-04-25T00:40:37;99630.00;;;9.95;92.81
43681;BME280;29281;50.356;30.894;2023-04-25T00:41:41;99627.35;;;9.95;91.97
43681;BME280;29281;50.356;30.894;2023-04-25T00:42:44;99632.66;;;9.95;92.65
43681;BME280;29281;50.356;30.894;2023-04-25T00:43:48;99627.61;;;9.92;91.79
43681;BME280;29281;50.356;30.894;2023-04-25T00:44:53;99622.05;;;9.95;91.34
43681;BME280;29281;50.356;30.894;2023-04-25T00:45:59;99622.30;;;9.92;91.65
43681;BME280;29281;50.356;30.894;2023-04-25T00:47:03;99620.61;;;9.91;91.24
43681;BME280;29281;50.356;30.894;2023-04-25T00:48:07;99618.17;;;9.87;90.51
43681;BME280;29281;50.356;30.894;2023-04-25T00:49:10;99625.06;;;9.90;90.25
43681;BME280;29281;50.356;30.894;2023-04-25T00:50:18;99621.56;;;9.90;90.90
43681;BME280;29281;50.356;30.894;2023-04-25T00:51:22;99621.45;;;9.91;90.25
43681;BME280;29281;50.356;30.894;2023-04-25T00:52:27;99623.25;;;9.91;91.17
43681;BME280;29281;50.356;30.894;2023-04-25T00:53:31;99620.94;;;9.86;93.44
43681;BME280;29281;50.356;30.894;2023-04-25T00:54:35;99625.39;;;9.85;94.07
43681;BME280;29281;50.356;30.894;2023-04-25T00:55:38;99624.88;;;9.80;95.14
43681;BME280;29281;50.356;30.894;2023-04-25T00:56:41;99623.07;;;9.81;95.08
43681;BME280;29281;50.356;30.894;2023-04-25T00:57:45;99621.48;;;9.78;95.51
43681;BME280;29281;50.356;30.894;2023-04-25T00:58:49;99628.95;;;9.73;95.54
43681;BME280;29281;50.356;30.894;2023-04-25T00:59:53;99625.34;;;9.74;96.12
43681;BME280;29281;50.356;30.894;2023-04-25T01:00:57;99623.65;;;9.73;96.21
43681;BME280;29281;50.356;30.894;2023-04-25T01:02:01;99622.33;;;9.79;96.54
43681;BME280;29281;50.356;30.894;2023-04-25T01:03:03;99624.88;;;9.80;95.76
43681;BME280;29281;50.356;30.894;2023-04-25T01:04:08;99620.94;;;9.86;95.68
43681;BME280;29281;50.356;30.894;2023-04-25T01:05:12;99621.27;;;9.81;95.46
43681;BME280;29281;50.356;30.894;2023-04-25T01:06:17;99623.48;;;9.87;95.90
43681;BME280;29281;50.356;30.894;2023-04-25T01:07:22;99621.78;;;9.86;96.02
43681;BME280;29281;50.356;30.894;2023-04-25T01:08:26;99619.23;;;9.85;96.17
43681;BME280;29281;50.356;30.894;2023-04-25T01:09:30;99614.89;;;9.84;95.70
43681;BME280;29281;50.356;30.894;2023-04-25T01:10:35;99612.35;;;9.82;96.33
43681;BME280;29281;50.356;30.894;2023-04-25T01:11:39;99610.88;;;9.78;95.88
43681;BME280;29281;50.356;30.894;2023-04-25T01:12:43;99614.73;;;9.74;96.85
43681;BME280;29281;50.356;30.894;2023-04-25T01:13:46;99616.66;;;9.72;97.40
43681;BME280;29281;50.356;30.894;2023-04-25T01:14:49;99624.83;;;9.69;97.67
43681;BME280;29281;50.356;30.894;2023-04-25T01:15:53;99621.95;;;9.72;96.99
43681;BME280;29281;50.356;30.894;2023-04-25T01:16:55;99615.18;;;9.68;97.03
43681;BME280;29281;50.356;30.894;2023-04-25T01:17:58;99615.07;;;9.70;97.59
43681;BME280;29281;50.356;30.894;2023-04-25T01:19:05;99613.05;;;9.73;96.04
43681;BME280;29281;50.356;30.894;2023-04-25T01:20:11;99612.09;;;9.74;95.92
43681;BME280;29281;50.356;30.894;2023-04-25T01:21:13;99612.31;;;9.71;96.34
43681;BME280;29281;50.356;30.894;2023-04-25T01:22:18;99613.37;;;9.69;96.82
43681;BME280;29281;50.356;30.894;2023-04-25T01:23:21;99613.48;;;9.67;97.73
43681;BME280;29281;50.356;30.894;2023-04-25T01:24:25;99612.85;;;9.64;97.82
43681;BME280;29281;50.356;30.894;2023-04-25T01:25:28;99616.46;;;9.63;98.12
43681;BME280;29281;50.356;30.894;2023-04-25T01:26:32;99614.28;;;9.57;97.84
43681;BME280;29281;50.356;30.894;2023-04-25T01:27:36;99606.66;;;9.52;98.77
43681;BME280;29281;50.356;30.894;2023-04-25T01:28:40;99616.19;;;9.55;99.04
43681;BME280;29281;50.356;30.894;2023-04-25T01:29:46;99610.89;;;9.55;98.51
43681;BME280;29281;50.356;30.894;2023-04-25T01:30:50;99613.43;;;9.56;97.98
43681;BME280;29281;50.356;30.894;2023-04-25T01:31:54;99605.27;;;9.59;97.64
43681;BME280;29281;50.356;30.894;2023-04-25T01:32:57;99615.75;;;9.61;98.36
43681;BME280;29281;50.356;30.894;2023-04-25T01:34:03;99611.30;;;9.61;99.21
43681;BME280;29281;50.356;30.894;2023-04-25T01:35:07;99617.45;;;9.62;99.15
43681;BME280;29281;50.356;30.894;2023-04-25T01:36:14;99613.11;;;9.61;97.05
43681;BME280;29281;50.356;30.894;2023-04-25T01:37:17;99608.65;;;9.61;96.73
43681;BME280;29281;50.356;30.894;2023-04-25T01:38:22;99607.17;;;9.57;98.04
43681;BME280;29281;50.356;30.894;2023-04-25T01:39:26;99608.98;;;9.57;98.55
43681;BME280;29281;50.356;30.894;2023-04-25T01:40:28;99611.84;;;9.53;100.00
43681;BME280;29281;50.356;30.894;2023-04-25T01:41:32;99600.02;;;9.46;100.00
43681;BME280;29281;50.356;30.894;2023-04-25T01:42:40;99602.03;;;9.43;100.00
43681;BME280;29281;50.356;30.894;2023-04-25T01:43:43;99601.51;;;9.38;100.00
43681;BME280;29281;50.356;30.894;2023-04-25T01:44:48;99597.06;;;9.38;100.00
43681;BME280;29281;50.356;30.894;2023-04-25T01:45:51;99595.99;;;9.41;100.00
43681;BME280;29281;50.356;30.894;2023-04-25T01:46:55;99600.45;;;9.40;100.00
43681;BME280;29281;50.356;30.894;2023-04-25T01:47:58;99596.95;;;9.40;100.00
43681;BME280;29281;50.356;30.894;2023-04-25T01:49:02;99596.73;;;9.43;100.00
43681;BME280;29281;50.356;30.894;2023-04-25T01:50:06;99599.02;;;9.47;100.00
43681;BME280;29281;50.356;30.894;2023-04-25T01:51:11;99595.20;;;9.51;100.00
43681;BME280;29281;50.356;30.894;2023-04-25T01:52:16;99593.51;;;9.50;100.00
43681;BME280;29281;50.356;30.894;2023-04-25T01:53:18;99603.05;;;9.53;100.00
43681;BME280;29281;50.356;30.894;2023-04-25T01:54:22;99596.68;;;9.56;100.00
43681;BME280;29281;50.356;30.894;2023-04-25T01:55:24;99597.41;;;9.58;100.00
43681;BME280;29281;50.356;30.894;2023-04-25T01:56:30;99598.81;;;9.50;100.00
43681;BME280;29281;50.356;30.894;2023-04-25T01:57:34;99600.50;;;9.51;100.00
43681;BME280;29281;50.356;30.894;2023-04-25T01:58:38;99595.09;;;9.53;100.00
43681;BME280;29281;50.356;30.894;2023-04-25T02:00:01;99592.66;;;9.50;100.00
43681;BME280;29281;50.356;30.894;2023-04-25T02:01:14;99591.22;;;9.46;100.00
43681;BME280;29281;50.356;30.894;2023-04-25T02:02:19;99590.59;;;9.42;100.00
43681;BME280;29281;50.356;30.894;2023-04-25T02:03:22;99589.73;;;9.42;100.00
43681;BME280;29281;50.356;30.894;2023-04-25T02:04:26;99592.50;;;9.40;100.00
43681;BME280;29281;50.356;30.894;2023-04-25T02:05:35;99583.80;;;9.38;100.00
43681;BME280;29281;50.356;30.894;2023-04-25T02:06:41;99585.50;;;9.39;100.00
43681;BME280;29281;50.356;30.894;2023-04-25T02:07:44;99584.88;;;9.36;100.00
43681;BME280;29281;50.356;30.894;2023-04-25T02:08:47;99591.02;;;9.36;100.00
43681;BME280;29281;50.356;30.894;2023-04-25T02:09:52;99587.88;;;9.31;100.00
43681;BME280;29281;50.356;30.894;2023-04-25T02:10:57;99578.23;;;9.30;100.00
43681;BME280;29281;50.356;30.894;2023-04-25T02:12:03;99580.53;;;9.35;100.00
43681;BME280;29281;50.356;30.894;2023-04-25T02:13:11;99584.77;;;9.37;100.00
43681;BME280;29281;50.356;30.894;2023-04-25T02:14:17;99585.61;;;9.38;100.00
43681;BME280;29281;50.356;30.894;2023-04-25T02:15:28;99586.67;;;9.35;100.00
43681;BME280;29281;50.356;30.894;2023-04-25T02:16:34;99577.14;;;9.33;100.00
43681;BME280;29281;50.356;30.894;2023-04-25T02:17:41;99583.53;;;9.30;100.00
43681;BME280;29281;50.356;30.894;2023-04-25T02:18:45;99580.99;;;9.29;100.00
43681;BME280;29281;50.356;30.894;2023-04-25T02:19:47;99583.64;;;9.29;100.00
43681;BME280;29281;50.356;30.894;2023-04-25T02:20:49;99578.45;;;9.27;100.00
43681;BME280;29281;50.356;30.894;2023-04-25T02:21:52;99576.64;;;9.28;100.00
43681;BME280;29281;50.356;30.894;2023-04-25T02:22:56;99584.59;;;9.28;100.00
43681;BME280;29281;50.356;30.894;2023-04-25T02:24:04;99581.95;;;9.28;100.00
43681;BME280;29281;50.356;30.894;2023-04-25T02:25:10;99573.36;;;9.24;100.00
43681;BME280;29281;50.356;30.894;2023-04-25T02:26:14;99585.98;;;9.21;100.00
43681;BME280;29281;50.356;30.894;2023-04-25T02:27:19;99588.84;;;9.17;100.00
43681;BME280;29281;50.356;30.894;2023-04-25T02:28:23;99581.63;;;9.20;100.00
43681;BME280;29281;50.356;30.894;2023-04-25T02:29:28;99578.03;;;9.21;100.00
43681;BME280;29281;50.356;30.894;2023-04-25T02:30:31;99583.33;;;9.21;100.00
43681;BME280;29281;50.356;30.894;2023-04-25T02:31:34;99578.66;;;9.24;100.00
43681;BME280;29281;50.356;30.894;2023-04-25T02:32:38;99581.20;;;9.26;100.00
43681;BME280;29281;50.356;30.894;2023-04-25T02:33:42;99583.96;;;9.24;100.00
43681;BME280;29281;50.356;30.894;2023-04-25T02:34:45;99571.56;;;9.25;100.00
43681;BME280;29281;50.356;30.894;2023-04-25T02:35:50;99581.42;;;9.23;100.00
43681;BME280;29281;50.356;30.894;2023-04-25T02:36:57;99575.27;;;9.22;100.00
43681;BME280;29281;50.356;30.894;2023-04-25T02:38:01;99569.13;;;9.22;100.00
43681;BME280;29281;50.356;30.894;2023-04-25T02:39:05;99574.42;;;9.22;100.00
43681;BME280;29281;50.356;30.894;2023-04-25T02:40:08;99576.05;;;9.11;100.00
43681;BME280;29281;50.356;30.894;2023-04-25T02:41:10;99579.45;;;9.13;100.00
43681;BME280;29281;50.356;30.894;2023-04-25T02:42:12;99572.34;;;9.14;100.00
43681;BME280;29281;50.356;30.894;2023-04-25T02:43:15;99575.84;;;9.14;100.00
43681;BME280;29281;50.356;30.894;2023-04-25T02:44:19;99567.79;;;9.16;100.00
43681;BME280;29281;50.356;30.894;2023-04-25T02:45:23;99562.48;;;9.16;100.00
43681;BME280;29281;50.356;30.894;2023-04-25T02:46:27;99559.00;;;9.15;100.00
43681;BME280;29281;50.356;30.894;2023-04-25T02:47:32;99562.34;;;9.17;100.00
43681;BME280;29281;50.356;30.894;2023-04-25T02:48:36;99563.34;;;9.16;100.00
43681;BME280;29281;50.356;30.894;2023-04-25T02:49:39;99562.59;;;9.14;100.00
43681;BME280;29281;50.356;30.894;2023-04-25T02:50:43;99562.81;;;9.11;100.00
43681;BME280;29281;50.356;30.894;2023-04-25T02:51:49;99568.43;;;9.07;100.00
43681;BME280;29281;50.356;30.894;2023-04-25T02:52:52;99570.12;;;9.08;100.00
43681;BME280;29281;50.356;30.894;2023-04-25T02:53:59;99564.94;;;9.06;100.00
43681;BME280;29281;50.356;30.894;2023-04-25T02:55:03;99569.84;;;9.00;100.00
43681;BME280;29281;50.356;30.894;2023-04-25T02:56:07;99562.50;;;9.03;100.00
43681;BME280;29281;50.356;30.894;2023-04-25T02:57:11;99563.77;;;9.10;100.00
43681;BME280;29281;50.356;30.894;2023-04-25T02:58:15;99570.55;;;9.14;100.00
43681;BME280;29281;50.356;30.894;2023-04-25T02:59:21;99568.63;;;9.16;100.00
43681;BME280;29281;50.356;30.894;2023-04-25T03:00:25;99563.09;;;9.20;100.00
43681;BME280;29281;50.356;30.894;2023-04-25T03:01:29;99565.98;;;9.16;100.00
43681;BME280;29281;50.356;30.894;2023-04-25T03:02:32;99567.05;;;9.14;100.00
43681;BME280;29281;50.356;30.894;2023-04-25T03:03:38;99568.22;;;9.10;100.00
43681;BME280;29281;50.356;30.894;2023-04-25T03:04:42;99570.76;;;9.11;100.00
43681;BME280;29281;50.356;30.894;2023-04-25T03:05:46;99575.59;;;9.17;100.00
43681;BME280;29281;50.356;30.894;2023-04-25T03:06:51;99562.14;;;9.21;100.00
43681;BME280;29281;50.356;30.894;2023-04-25T03:07:56;99567.33;;;9.22;100.00
43681;BME280;29281;50.356;30.894;2023-04-25T03:08:59;99566.05;;;9.28;100.00
43681;BME280;29281;50.356;30.894;2023-04-25T03:10:04;99571.84;;;9.33;100.00
43681;BME280;29281;50.356;30.894;2023-04-25T03:11:09;99574.37;;;9.34;100.00
43681;BME280;29281;50.356;30.894;2023-04-25T03:12:12;99573.31;;;9.37;100.00
43681;BME280;29281;50.356;30.894;2023-04-25T03:13:15;99575.75;;;9.40;100.00
43681;BME280;29281;50.356;30.894;2023-04-25T03:14:18;99570.86;;;9.46;100.00
43681;BME280;29281;50.356;30.894;2023-04-25T03:15:22;99578.81;;;9.46;100.00
43681;BME280;29281;50.356;30.894;2023-04-25T03:16:27;99577.77;;;9.36;100.00
43681;BME280;29281;50.356;30.894;2023-04-25T03:17:30;99569.55;;;9.28;100.00
43681;BME280;29281;50.356;30.894;2023-04-25T03:18:33;99576.64;;;9.28;100.00
43681;BME280;29281;50.356;30.894;2023-04-25T03:19:37;99576.81;;;9.37;100.00
43681;BME280;29281;50.356;30.894;2023-04-25T03:20:39;99569.60;;;9.39;100.00
43681;BME280;29281;50.356;30.894;2023-04-25T03:21:48;99571.81;;;9.45;100.00
43681;BME280;29281;50.356;30.894;2023-04-25T03:22:54;99568.59;;;9.53;100.00
43681;BME280;29281;50.356;30.894;2023-04-25T03:23:57;99575.14;;;9.60;100.00
43681;BME280;29281;50.356;30.894;2023-04-25T03:25:00;99571.06;;;9.67;100.00
43681;BME280;29281;50.356;30.894;2023-04-25T03:26:03;99571.95;;;9.79;100.00
43681;BME280;29281;50.356;30.894;2023-04-25T03:27:07;99571.28;;;9.88;99.14
43681;BME280;29281;50.356;30.894;2023-04-25T03:28:10;99570.09;;;9.92;98.77
43681;BME280;29281;50.356;30.894;2023-04-25T03:29:13;99569.84;;;9.95;98.47
43681;BME280;29281;50.356;30.894;2023-04-25T03:30:16;99575.77;;;9.99;97.80
43681;BME280;29281;50.356;30.894;2023-04-25T03:31:20;99581.47;;;10.05;97.48
43681;BME280;29281;50.356;30.894;2023-04-25T03:32:23;99583.76;;;10.10;96.54
43681;BME280;29281;50.356;30.894;2023-04-25T03:33:27;99581.38;;;10.18;96.51
43681;BME280;29281;50.356;30.894;2023-04-25T03:34:31;99587.25;;;10.34;96.08
43681;BME280;29281;50.356;30.894;2023-04-25T03:35:34;99583.98;;;10.42;95.24
43681;BME280;29281;50.356;30.894;2023-04-25T03:36:36;99588.61;;;10.51;94.67
43681;BME280;29281;50.356;30.894;2023-04-25T03:37:42;99592.61;;;10.68;94.66
43681;BME280;29281;50.356;30.894;2023-04-25T03:38:50;99589.45;;;10.85;93.73
43681;BME280;29281;50.356;30.894;2023-04-25T03:39:53;99592.25;;;10.95;92.74
43681;BME280;29281;50.356;30.894;2023-04-25T03:40:57;99585.82;;;11.19;90.79
43681;BME280;29281;50.356;30.894;2023-04-25T03:42:05;99588.42;;;11.53;88.27
43681;BME280;29281;50.356;30.894;2023-04-25T03:43:08;99591.99;;;11.74;86.47
43681;BME280;29281;50.356;30.894;2023-04-25T03:44:11;99591.60;;;11.90;84.72
43681;BME280;29281;50.356;30.894;2023-04-25T03:45:14;99590.11;;;11.97;83.22
43681;BME280;29281;50.356;30.894;2023-04-25T03:46:17;99587.56;;;11.95;82.77
43681;BME280;29281;50.356;30.894;2023-04-25T03:47:22;99593.23;;;12.02;82.59
43681;BME280;29281;50.356;30.894;2023-04-25T03:48:27;99587.79;;;12.04;81.93
43681;BME280;29281;50.356;30.894;2023-04-25T03:49:30;99576.55;;;12.00;81.56
43681;BME280;29281;50.356;30.894;2023-04-25T03:50:35;99591.80;;;11.98;81.67
43681;BME280;29281;50.356;30.894;2023-04-25T03:51:38;99586.78;;;11.84;83.32
43681;BME280;29281;50.356;30.894;2023-04-25T03:52:42;99575.92;;;11.64;83.93
43681;BME280;29281;50.356;30.894;2023-04-25T03:53:45;99578.27;;;11.47;85.66
43681;BME280;29281;50.356;30.894;2023-04-25T03:54:58;99570.45;;;11.34;85.78
43681;BME280;29281;50.356;30.894;2023-04-25T03:56:00;99584.01;;;11.20;87.58
43681;BME280;29281;50.356;30.894;2023-04-25T03:57:05;99580.99;;;11.24;89.65
43681;BME280;29281;50.356;30.894;2023-04-25T03:58:10;99585.34;;;11.25;89.66
43681;BME280;29281;50.356;30.894;2023-04-25T03:59:13;99584.47;;;11.36;89.29
43681;BME280;29281;50.356;30.894;2023-04-25T04:00:16;99575.88;;;11.44;88.55
43681;BME280;29281;50.356;30.894;2023-04-25T04:01:19;99582.74;;;11.46;87.28
43681;BME280;29281;50.356;30.894;2023-04-25T04:02:22;99576.33;;;11.49;87.89
43681;BME280;29281;50.356;30.894;2023-04-25T04:03:27;99571.85;;;11.60;87.68
43681;BME280;29281;50.356;30.894;2023-04-25T04:04:31;99577.49;;;11.67;86.87
43681;BME280;29281;50.356;30.894;2023-04-25T04:05:35;99570.11;;;11.71;87.35
43681;BME280;29281;50.356;30.894;2023-04-25T04:06:39;99574.34;;;11.73;86.89
43681;BME280;29281;50.356;30.894;2023-04-25T04:07:47;99576.52;;;11.68;88.10
43681;BME280;29281;50.356;30.894;2023-04-25T04:08:52;99572.13;;;11.89;87.08
43681;BME280;29281;50.356;30.894;2023-04-25T04:09:56;99575.91;;;12.28;84.64
43681;BME280;29281;50.356;30.894;2023-04-25T04:11:02;99576.54;;;12.62;82.78
43681;BME280;29281;50.356;30.894;2023-04-25T04:12:05;99569.14;;;12.66;81.00
43681;BME280;29281;50.356;30.894;2023-04-25T04:13:12;99580.05;;;12.63;81.42
43681;BME280;29281;50.356;30.894;2023-04-25T04:14:15;99581.50;;;12.46;81.95
43681;BME280;29281;50.356;30.894;2023-04-25T04:15:21;99578.88;;;12.56;82.06
43681;BME280;29281;50.356;30.894;2023-04-25T04:16:24;99571.58;;;12.79;79.54
43681;BME280;29281;50.356;30.894;2023-04-25T04:17:28;99583.56;;;12.63;79.99
43681;BME280;29281;50.356;30.894;2023-04-25T04:18:34;99569.01;;;12.67;80.85
43681;BME280;29281;50.356;30.894;2023-04-25T04:19:36;99580.05;;;12.63;81.10
43681;BME280;29281;50.356;30.894;2023-04-25T04:20:41;99583.09;;;12.58;80.92
43681;BME280;29281;50.356;30.894;2023-04-25T04:21:45;99574.72;;;12.63;80.95
43681;BME280;29281;50.356;30.894;2023-04-25T04:22:48;99569.91;;;12.57;82.06
43681;BME280;29281;50.356;30.894;2023-04-25T04:23:52;99568.48;;;12.53;83.66
43681;BME280;29281;50.356;30.894;2023-04-25T04:24:55;99577.73;;;12.49;84.06
43681;BME280;29281;50.356;30.894;2023-04-25T04:26:09;99567.48;;;12.75;82.08
43681;BME280;29281;50.356;30.894;2023-04-25T04:27:27;99563.79;;;13.27;80.61
43681;BME280;29281;50.356;30.894;2023-04-25T04:28:51;99570.02;;;13.56;77.65
43681;BME280;29281;50.356;30.894;2023-04-25T04:29:59;99568.92;;;13.88;75.33
43681;BME280;29281;50.356;30.894;2023-04-25T04:31:23;99573.09;;;14.29;74.46
43681;BME280;29281;50.356;30.894;2023-04-25T04:32:28;99571.30;;;15.13;70.51
43681;BME280;29281;50.356;30.894;2023-04-25T04:33:33;99583.68;;;16.04;66.64
43681;BME280;29281;50.356;30.894;2023-04-25T04:34:38;99591.98;;;16.80;63.10
43681;BME280;29281;50.356;30.894;2023-04-25T04:35:45;99590.48;;;17.12;61.09
43681;BME280;29281;50.356;30.894;2023-04-25T04:36:51;99589.14;;;17.08;60.95
43681;BME280;29281;50.356;30.894;2023-04-25T04:37:54;99593.19;;;16.60;62.91
43681;BME280;29281;50.356;30.894;2023-04-25T04:39:00;99585.22;;;16.07;64.78
43681;BME280;29281;50.356;30.894;2023-04-25T04:40:12;99574.67;;;15.70;65.91
43681;BME280;29281;50.356;30.894;2023-04-25T04:41:32;99571.84;;;15.71;67.02
43681;BME280;29281;50.356;30.894;2023-04-25T04:42:44;99573.45;;;16.00;66.22
43681;BME280;29281;50.356;30.894;2023-04-25T04:44:02;99569.23;;;15.97;66.72
43681;BME280;29281;50.356;30.894;2023-04-25T04:45:11;99578.56;;;16.11;65.51
43681;BME280;29281;50.356;30.894;2023-04-25T04:46:35;99574.10;;;16.19;63.78
43681;BME280;29281;50.356;30.894;2023-04-25T04:47:49;99571.38;;;16.11;64.01
43681;BME280;29281;50.356;30.894;2023-04-25T04:48:54;99570.23;;;15.96;66.08
43681;BME280;29281;50.356;30.894;2023-04-25T04:50:16;99570.89;;;16.34;64.55
43681;BME280;29281;50.356;30.894;2023-04-25T04:51:37;99579.88;;;17.44;60.58
43681;BME280;29281;50.356;30.894;2023-04-25T04:52:42;99582.73;;;18.01;57.90
43681;BME280;29281;50.356;30.894;2023-04-25T04:53:58;99585.91;;;18.53;55.84
43681;BME280;29281;50.356;30.894;2023-04-25T04:55:08;99588.73;;;19.40;53.95
43681;BME280;29281;50.356;30.894;2023-04-25T04:56:22;99600.30;;;20.70;50.77
43681;BME280;29281;50.356;30.894;2023-04-25T04:57:36;99598.92;;;21.63;47.44
43681;BME280;29281;50.356;30.894;2023-04-25T04:58:59;99603.88;;;21.45;46.25
43681;BME280;29281;50.356;30.894;2023-04-25T05:00:05;99604.89;;;21.94;46.65
43681;BME280;29281;50.356;30.894;2023-04-25T05:01:30;99605.85;;;22.72;45.61
43681;BME280;29281;50.356;30.894;2023-04-25T05:02:34;99612.25;;;23.20;44.15
43681;BME280;29281;50.356;30.894;2023-04-25T05:04:03;99620.95;;;24.04;41.83
43681;BME280;29281;50.356;30.894;2023-04-25T05:05:11;99626.08;;;24.53;40.55
43681;BME280;29281;50.356;30.894;2023-04-25T05:06:22;99631.49;;;25.06;39.74
43681;BME280;29281;50.356;30.894;2023-04-25T05:07:44;99637.56;;;25.15;39.04
43681;BME280;29281;50.356;30.894;2023-04-25T05:08:56;99637.11;;;25.96;36.98
43681;BME280;29281;50.356;30.894;2023-04-25T05:10:14;99639.17;;;26.38;36.75
43681;BME280;29281;50.356;30.894;2023-04-25T05:11:20;99647.32;;;26.70;36.10
43681;BME280;29281;50.356;30.894;2023-04-25T05:12:40;99644.74;;;26.75;35.21
43681;BME280;29281;50.356;30.894;2023-04-25T05:13:51;99648.80;;;26.90;34.71
43681;BME280;29281;50.356;30.894;2023-04-25T05:15:15;99653.30;;;27.28;34.55
43681;BME280;29281;50.356;30.894;2023-04-25T05:16:27;99646.12;;;27.34;34.47
43681;BME280;29281;50.356;30.894;2023-04-25T05:17:32;99660.16;;;27.74;33.63
43681;BME280;29281;50.356;30.894;2023-04-25T05:18:54;99656.66;;;27.85;33.67
43681;BME280;29281;50.356;30.894;2023-04-25T05:20:03;99660.16;;;27.74;33.83
43681;BME280;29281;50.356;30.894;2023-04-25T05:21:10;99663.75;;;28.22;32.75
43681;BME280;29281;50.356;30.894;2023-04-25T05:22:25;99663.20;;;28.14;31.77
43681;BME280;29281;50.356;30.894;2023-04-25T05:23:32;99656.09;;;27.64;33.23
43681;BME280;29281;50.356;30.894;2023-04-25T05:24:38;99658.86;;;27.94;32.35
43681;BME280;29281;50.356;30.894;2023-04-25T05:25:47;99661.06;;;27.49;33.15
43681;BME280;29281;50.356;30.894;2023-04-25T05:26:59;99645.81;;;27.42;34.14
43681;BME280;29281;50.356;30.894;2023-04-25T05:28:07;99656.70;;;27.96;32.21
43681;BME280;29281;50.356;30.894;2023-04-25T05:29:14;99651.95;;;28.40;31.98
43681;BME280;29281;50.356;30.894;2023-04-25T05:30:22;99656.83;;;28.50;30.97
43681;BME280;29281;50.356;30.894;2023-04-25T05:31:37;99656.86;;;28.20;31.21
43681;BME280;29281;50.356;30.894;2023-04-25T05:32:42;99649.16;;;28.28;31.86
43681;BME280;29281;50.356;30.894;2023-04-25T05:33:49;99648.70;;;27.83;33.00
43681;BME280;29281;50.356;30.894;2023-04-25T05:34:53;99652.39;;;27.52;32.42
43681;BME280;29281;50.356;30.894;2023-04-25T05:35:59;99649.63;;;27.77;32.57
43681;BME280;29281;50.356;30.894;2023-04-25T05:37:04;99654.23;;;27.95;32.36
43681;BME280;29281;50.356;30.894;2023-04-25T05:38:14;99653.81;;;27.61;33.18
43681;BME280;29281;50.356;30.894;2023-04-25T05:39:32;99649.43;;;27.36;33.35
43681;BME280;29281;50.356;30.894;2023-04-25T05:40:44;99653.56;;;26.45;34.51
43681;BME280;29281;50.356;30.894;2023-04-25T05:41:49;99642.98;;;26.31;35.47
43681;BME280;29281;50.356;30.894;2023-04-25T05:42:55;99638.65;;;25.78;35.30
43681;BME280;29281;50.356;30.894;2023-04-25T05:44:18;99637.02;;;25.57;36.27
43681;BME280;29281;50.356;30.894;2023-04-25T05:45:26;99646.70;;;25.98;34.31